ěÝzenÝ letovÚho provozu ╚eskÚ republiky
Letiste: LKPR Aktualizace: 27.02.2024 12:46:52  UTC
 SPECI LKPR 27.02. 12:45 ...
SPECI LKPR 271245Z 02005KT 7000 FEW008 BKN011 06/04 Q1012=
 TAF LKPR 27.02. 11:00 ...
TAF LKPR 271100Z 2712/2818 35006KT 5000 BR BKN006      BECMG 2712/2714 9999 SCT015      BECMG 2800/2802 5000 BR SCT010      TEMPO 2802/2807 1200 BR BKN004      BECMG 2807/2809 9999 OVC017      BECMG 2816/2818 9999 SCT025=